sensor_id;sensor_type;location;lat;lon;timestamp;P1;durP1;ratioP1;P2;durP2;ratioP2
57627;SDS011;43451;49.060;10.616;2024-03-06T00:00:47;13.43;;;9.63;;
57627;SDS011;43451;49.060;10.616;2024-03-06T00:03:13;12.02;;;8.80;;
57627;SDS011;43451;49.060;10.616;2024-03-06T00:05:38;14.63;;;10.23;;
57627;SDS011;43451;49.060;10.616;2024-03-06T00:08:04;13.90;;;10.15;;
57627;SDS011;43451;49.060;10.616;2024-03-06T00:10:30;14.43;;;10.18;;
57627;SDS011;43451;49.060;10.616;2024-03-06T00:12:55;13.95;;;9.73;;
57627;SDS011;43451;49.060;10.616;2024-03-06T00:15:21;13.40;;;9.73;;
57627;SDS011;43451;49.060;10.616;2024-03-06T00:17:46;13.95;;;9.52;;
57627;SDS011;43451;49.060;10.616;2024-03-06T00:20:12;12.82;;;8.93;;
57627;SDS011;43451;49.060;10.616;2024-03-06T00:22:39;12.63;;;9.23;;
57627;SDS011;43451;49.060;10.616;2024-03-06T00:25:04;12.57;;;9.10;;
57627;SDS011;43451;49.060;10.616;2024-03-06T00:27:31;13.15;;;9.27;;
57627;SDS011;43451;49.060;10.616;2024-03-06T00:29:56;13.18;;;9.45;;
57627;SDS011;43451;49.060;10.616;2024-03-06T00:32:22;12.82;;;9.13;;
57627;SDS011;43451;49.060;10.616;2024-03-06T00:34:48;13.43;;;9.50;;
57627;SDS011;43451;49.060;10.616;2024-03-06T00:37:14;13.40;;;9.48;;
57627;SDS011;43451;49.060;10.616;2024-03-06T00:39:39;13.50;;;9.25;;
57627;SDS011;43451;49.060;10.616;2024-03-06T00:42:05;14.88;;;9.38;;
57627;SDS011;43451;49.060;10.616;2024-03-06T00:44:31;15.48;;;10.68;;
57627;SDS011;43451;49.060;10.616;2024-03-06T00:46:56;15.98;;;10.07;;
57627;SDS011;43451;49.060;10.616;2024-03-06T00:49:22;13.30;;;9.40;;
57627;SDS011;43451;49.060;10.616;2024-03-06T00:51:47;14.02;;;10.15;;
57627;SDS011;43451;49.060;10.616;2024-03-06T00:54:13;12.95;;;9.60;;
57627;SDS011;43451;49.060;10.616;2024-03-06T00:56:39;13.55;;;10.18;;
57627;SDS011;43451;49.060;10.616;2024-03-06T00:59:04;14.85;;;10.27;;
57627;SDS011;43451;49.060;10.616;2024-03-06T01:01:30;14.10;;;10.30;;
57627;SDS011;43451;49.060;10.616;2024-03-06T01:03:56;13.60;;;10.05;;
57627;SDS011;43451;49.060;10.616;2024-03-06T01:06:21;14.57;;;10.15;;
57627;SDS011;43451;49.060;10.616;2024-03-06T01:08:47;14.35;;;10.10;;
57627;SDS011;43451;49.060;10.616;2024-03-06T01:11:12;15.15;;;10.43;;
57627;SDS011;43451;49.060;10.616;2024-03-06T01:13:41;12.75;;;8.65;;
57627;SDS011;43451;49.060;10.616;2024-03-06T01:16:06;13.32;;;9.02;;
57627;SDS011;43451;49.060;10.616;2024-03-06T01:18:32;13.40;;;9.70;;
57627;SDS011;43451;49.060;10.616;2024-03-06T01:20:57;14.25;;;10.27;;
57627;SDS011;43451;49.060;10.616;2024-03-06T01:23:23;14.30;;;9.95;;
57627;SDS011;43451;49.060;10.616;2024-03-06T01:25:49;14.60;;;9.95;;
57627;SDS011;43451;49.060;10.616;2024-03-06T01:28:14;15.48;;;10.32;;
57627;SDS011;43451;49.060;10.616;2024-03-06T01:30:40;15.95;;;11.00;;
57627;SDS011;43451;49.060;10.616;2024-03-06T01:33:05;14.38;;;10.45;;
57627;SDS011;43451;49.060;10.616;2024-03-06T01:35:31;14.90;;;10.95;;
57627;SDS011;43451;49.060;10.616;2024-03-06T01:37:57;15.82;;;11.00;;
57627;SDS011;43451;49.060;10.616;2024-03-06T01:40:23;16.70;;;10.95;;
57627;SDS011;43451;49.060;10.616;2024-03-06T01:42:49;14.88;;;10.88;;
57627;SDS011;43451;49.060;10.616;2024-03-06T01:45:15;16.35;;;11.13;;
57627;SDS011;43451;49.060;10.616;2024-03-06T01:47:40;15.88;;;11.43;;
57627;SDS011;43451;49.060;10.616;2024-03-06T01:50:06;17.73;;;11.50;;
57627;SDS011;43451;49.060;10.616;2024-03-06T01:52:35;20.50;;;12.77;;
57627;SDS011;43451;49.060;10.616;2024-03-06T01:55:03;18.58;;;11.93;;
57627;SDS011;43451;49.060;10.616;2024-03-06T01:57:30;16.13;;;11.63;;
57627;SDS011;43451;49.060;10.616;2024-03-06T01:59:56;16.75;;;11.60;;
57627;SDS011;43451;49.060;10.616;2024-03-06T02:02:22;15.75;;;10.98;;
57627;SDS011;43451;49.060;10.616;2024-03-06T02:04:48;15.70;;;10.85;;
57627;SDS011;43451;49.060;10.616;2024-03-06T02:07:14;14.82;;;10.57;;
57627;SDS011;43451;49.060;10.616;2024-03-06T02:09:41;16.05;;;11.45;;
57627;SDS011;43451;49.060;10.616;2024-03-06T02:12:07;16.38;;;11.27;;
57627;SDS011;43451;49.060;10.616;2024-03-06T02:14:36;14.65;;;10.73;;
57627;SDS011;43451;49.060;10.616;2024-03-06T02:17:01;16.83;;;11.15;;
57627;SDS011;43451;49.060;10.616;2024-03-06T02:19:37;14.77;;;10.57;;
57627;SDS011;43451;49.060;10.616;2024-03-06T02:22:06;15.50;;;10.68;;
57627;SDS011;43451;49.060;10.616;2024-03-06T02:24:36;17.40;;;11.13;;
57627;SDS011;43451;49.060;10.616;2024-03-06T02:27:02;14.13;;;10.40;;
57627;SDS011;43451;49.060;10.616;2024-03-06T02:29:31;16.00;;;10.45;;
57627;SDS011;43451;49.060;10.616;2024-03-06T02:31:58;16.08;;;9.93;;
57627;SDS011;43451;49.060;10.616;2024-03-06T02:34:24;15.27;;;10.85;;
57627;SDS011;43451;49.060;10.616;2024-03-06T02:36:50;14.73;;;10.50;;
57627;SDS011;43451;49.060;10.616;2024-03-06T02:39:17;15.60;;;10.90;;
57627;SDS011;43451;49.060;10.616;2024-03-06T02:41:42;16.73;;;11.00;;
57627;SDS011;43451;49.060;10.616;2024-03-06T02:44:08;14.68;;;10.45;;
57627;SDS011;43451;49.060;10.616;2024-03-06T02:46:33;17.73;;;11.15;;
57627;SDS011;43451;49.060;10.616;2024-03-06T02:48:59;15.63;;;11.25;;
57627;SDS011;43451;49.060;10.616;2024-03-06T02:51:24;17.98;;;11.20;;
57627;SDS011;43451;49.060;10.616;2024-03-06T02:53:50;16.27;;;11.00;;
57627;SDS011;43451;49.060;10.616;2024-03-06T02:56:18;16.95;;;11.20;;
57627;SDS011;43451;49.060;10.616;2024-03-06T02:58:44;16.02;;;11.02;;
57627;SDS011;43451;49.060;10.616;2024-03-06T03:01:10;16.55;;;10.85;;
57627;SDS011;43451;49.060;10.616;2024-03-06T03:03:40;15.43;;;10.75;;
57627;SDS011;43451;49.060;10.616;2024-03-06T03:06:06;17.05;;;11.00;;
57627;SDS011;43451;49.060;10.616;2024-03-06T03:08:32;15.88;;;10.63;;
57627;SDS011;43451;49.060;10.616;2024-03-06T03:10:57;16.63;;;11.15;;
57627;SDS011;43451;49.060;10.616;2024-03-06T03:13:22;14.88;;;10.52;;
57627;SDS011;43451;49.060;10.616;2024-03-06T03:15:48;17.52;;;10.45;;
57627;SDS011;43451;49.060;10.616;2024-03-06T03:18:13;16.45;;;10.82;;
57627;SDS011;43451;49.060;10.616;2024-03-06T03:20:40;15.05;;;10.25;;
57627;SDS011;43451;49.060;10.616;2024-03-06T03:23:05;15.35;;;10.18;;
57627;SDS011;43451;49.060;10.616;2024-03-06T03:25:36;15.30;;;10.50;;
57627;SDS011;43451;49.060;10.616;2024-03-06T03:28:02;17.70;;;10.90;;
57627;SDS011;43451;49.060;10.616;2024-03-06T03:30:28;17.42;;;11.02;;
57627;SDS011;43451;49.060;10.616;2024-03-06T03:32:53;16.88;;;11.07;;
57627;SDS011;43451;49.060;10.616;2024-03-06T03:35:19;16.83;;;11.25;;
57627;SDS011;43451;49.060;10.616;2024-03-06T03:37:50;19.02;;;10.80;;
57627;SDS011;43451;49.060;10.616;2024-03-06T03:40:18;17.42;;;11.38;;
57627;SDS011;43451;49.060;10.616;2024-03-06T03:42:44;17.88;;;11.32;;
57627;SDS011;43451;49.060;10.616;2024-03-06T03:45:10;17.55;;;11.82;;
57627;SDS011;43451;49.060;10.616;2024-03-06T03:47:36;18.15;;;11.38;;
57627;SDS011;43451;49.060;10.616;2024-03-06T03:50:02;17.73;;;11.95;;
57627;SDS011;43451;49.060;10.616;2024-03-06T03:52:28;18.88;;;12.68;;
57627;SDS011;43451;49.060;10.616;2024-03-06T03:54:54;20.52;;;12.68;;
57627;SDS011;43451;49.060;10.616;2024-03-06T03:57:20;20.80;;;12.85;;
57627;SDS011;43451;49.060;10.616;2024-03-06T03:59:45;20.20;;;12.68;;
57627;SDS011;43451;49.060;10.616;2024-03-06T04:02:11;20.52;;;12.85;;
57627;SDS011;43451;49.060;10.616;2024-03-06T04:04:37;21.20;;;13.20;;
57627;SDS011;43451;49.060;10.616;2024-03-06T04:07:02;22.40;;;13.85;;
57627;SDS011;43451;49.060;10.616;2024-03-06T04:09:28;20.17;;;11.95;;
57627;SDS011;43451;49.060;10.616;2024-03-06T04:11:54;20.67;;;12.90;;
57627;SDS011;43451;49.060;10.616;2024-03-06T04:14:19;22.10;;;13.13;;
57627;SDS011;43451;49.060;10.616;2024-03-06T04:16:45;22.48;;;12.95;;
57627;SDS011;43451;49.060;10.616;2024-03-06T04:19:11;23.08;;;13.18;;
57627;SDS011;43451;49.060;10.616;2024-03-06T04:21:41;18.98;;;12.50;;
57627;SDS011;43451;49.060;10.616;2024-03-06T04:24:07;21.08;;;13.55;;
57627;SDS011;43451;49.060;10.616;2024-03-06T04:26:33;20.77;;;12.68;;
57627;SDS011;43451;49.060;10.616;2024-03-06T04:28:58;22.85;;;14.00;;
57627;SDS011;43451;49.060;10.616;2024-03-06T04:31:24;21.83;;;13.75;;
57627;SDS011;43451;49.060;10.616;2024-03-06T04:33:50;21.45;;;12.93;;
57627;SDS011;43451;49.060;10.616;2024-03-06T04:36:16;21.90;;;13.02;;
57627;SDS011;43451;49.060;10.616;2024-03-06T04:38:42;21.08;;;13.48;;
57627;SDS011;43451;49.060;10.616;2024-03-06T04:41:07;22.10;;;12.77;;
57627;SDS011;43451;49.060;10.616;2024-03-06T04:43:33;23.40;;;13.60;;
57627;SDS011;43451;49.060;10.616;2024-03-06T04:46:00;21.70;;;13.63;;
57627;SDS011;43451;49.060;10.616;2024-03-06T04:48:25;24.52;;;13.40;;
57627;SDS011;43451;49.060;10.616;2024-03-06T04:50:51;22.95;;;13.15;;
57627;SDS011;43451;49.060;10.616;2024-03-06T04:53:16;23.20;;;14.00;;
57627;SDS011;43451;49.060;10.616;2024-03-06T04:55:42;24.02;;;13.40;;
57627;SDS011;43451;49.060;10.616;2024-03-06T04:58:08;24.60;;;13.98;;
57627;SDS011;43451;49.060;10.616;2024-03-06T05:00:33;23.63;;;14.23;;
57627;SDS011;43451;49.060;10.616;2024-03-06T05:02:59;23.25;;;14.38;;
57627;SDS011;43451;49.060;10.616;2024-03-06T05:05:25;26.45;;;14.32;;
57627;SDS011;43451;49.060;10.616;2024-03-06T05:07:50;26.48;;;15.20;;
57627;SDS011;43451;49.060;10.616;2024-03-06T05:10:16;28.73;;;15.05;;
57627;SDS011;43451;49.060;10.616;2024-03-06T05:12:42;25.92;;;14.45;;
57627;SDS011;43451;49.060;10.616;2024-03-06T05:15:08;28.88;;;15.40;;
57627;SDS011;43451;49.060;10.616;2024-03-06T05:17:35;25.42;;;14.68;;
57627;SDS011;43451;49.060;10.616;2024-03-06T05:20:00;25.55;;;14.48;;
57627;SDS011;43451;49.060;10.616;2024-03-06T05:22:26;24.80;;;14.45;;
57627;SDS011;43451;49.060;10.616;2024-03-06T05:24:52;26.17;;;14.45;;
57627;SDS011;43451;49.060;10.616;2024-03-06T05:27:18;25.83;;;14.35;;
57627;SDS011;43451;49.060;10.616;2024-03-06T05:29:44;27.63;;;14.40;;
57627;SDS011;43451;49.060;10.616;2024-03-06T05:32:10;27.50;;;15.00;;
57627;SDS011;43451;49.060;10.616;2024-03-06T05:34:35;27.38;;;14.40;;
57627;SDS011;43451;49.060;10.616;2024-03-06T05:37:01;25.50;;;14.77;;
57627;SDS011;43451;49.060;10.616;2024-03-06T05:41:55;24.50;;;13.63;;
57627;SDS011;43451;49.060;10.616;2024-03-06T05:44:24;25.48;;;14.20;;
57627;SDS011;43451;49.060;10.616;2024-03-06T05:46:50;25.88;;;14.90;;
57627;SDS011;43451;49.060;10.616;2024-03-06T05:49:15;26.77;;;14.95;;
57627;SDS011;43451;49.060;10.616;2024-03-06T05:51:41;25.60;;;14.40;;
57627;SDS011;43451;49.060;10.616;2024-03-06T05:54:07;27.13;;;14.70;;
57627;SDS011;43451;49.060;10.616;2024-03-06T05:56:35;26.83;;;15.00;;
57627;SDS011;43451;49.060;10.616;2024-03-06T05:59:00;25.20;;;14.23;;
57627;SDS011;43451;49.060;10.616;2024-03-06T06:01:32;25.10;;;14.38;;
57627;SDS011;43451;49.060;10.616;2024-03-06T06:03:58;25.73;;;14.77;;
57627;SDS011;43451;49.060;10.616;2024-03-06T06:06:25;26.15;;;14.32;;
57627;SDS011;43451;49.060;10.616;2024-03-06T06:08:51;27.52;;;15.02;;
57627;SDS011;43451;49.060;10.616;2024-03-06T06:11:17;28.15;;;15.30;;
57627;SDS011;43451;49.060;10.616;2024-03-06T06:13:42;27.52;;;15.48;;
57627;SDS011;43451;49.060;10.616;2024-03-06T06:16:08;27.10;;;14.95;;
57627;SDS011;43451;49.060;10.616;2024-03-06T06:18:34;28.27;;;15.32;;
57627;SDS011;43451;49.060;10.616;2024-03-06T06:20:59;27.33;;;15.18;;
57627;SDS011;43451;49.060;10.616;2024-03-06T06:23:25;27.85;;;15.45;;
57627;SDS011;43451;49.060;10.616;2024-03-06T06:25:51;27.67;;;14.77;;
57627;SDS011;43451;49.060;10.616;2024-03-06T06:28:17;31.85;;;15.93;;
57627;SDS011;43451;49.060;10.616;2024-03-06T06:30:42;27.98;;;15.27;;
57627;SDS011;43451;49.060;10.616;2024-03-06T06:33:08;28.88;;;15.35;;
57627;SDS011;43451;49.060;10.616;2024-03-06T06:35:34;30.85;;;15.43;;
57627;SDS011;43451;49.060;10.616;2024-03-06T06:38:01;28.60;;;15.23;;
57627;SDS011;43451;49.060;10.616;2024-03-06T06:40:27;31.02;;;15.20;;
57627;SDS011;43451;49.060;10.616;2024-03-06T06:42:53;29.42;;;15.23;;
57627;SDS011;43451;49.060;10.616;2024-03-06T06:45:19;28.90;;;14.70;;
57627;SDS011;43451;49.060;10.616;2024-03-06T06:47:47;28.23;;;15.20;;
57627;SDS011;43451;49.060;10.616;2024-03-06T06:50:13;28.85;;;15.23;;
57627;SDS011;43451;49.060;10.616;2024-03-06T06:52:39;30.45;;;15.57;;
57627;SDS011;43451;49.060;10.616;2024-03-06T06:55:05;31.02;;;16.13;;
57627;SDS011;43451;49.060;10.616;2024-03-06T06:57:31;31.33;;;15.70;;
57627;SDS011;43451;49.060;10.616;2024-03-06T06:59:58;28.50;;;14.93;;
57627;SDS011;43451;49.060;10.616;2024-03-06T07:02:28;30.25;;;15.32;;
57627;SDS011;43451;49.060;10.616;2024-03-06T07:04:53;30.60;;;15.48;;
57627;SDS011;43451;49.060;10.616;2024-03-06T07:07:19;32.95;;;16.23;;
57627;SDS011;43451;49.060;10.616;2024-03-06T07:09:44;33.10;;;16.27;;
57627;SDS011;43451;49.060;10.616;2024-03-06T07:12:11;33.38;;;14.63;;
57627;SDS011;43451;49.060;10.616;2024-03-06T07:14:36;32.33;;;15.35;;
57627;SDS011;43451;49.060;10.616;2024-03-06T07:17:02;33.75;;;16.17;;
57627;SDS011;43451;49.060;10.616;2024-03-06T07:19:28;32.83;;;16.67;;
57627;SDS011;43451;49.060;10.616;2024-03-06T07:21:54;36.35;;;16.98;;
57627;SDS011;43451;49.060;10.616;2024-03-06T07:24:19;36.00;;;17.45;;
57627;SDS011;43451;49.060;10.616;2024-03-06T07:26:45;35.22;;;16.40;;
57627;SDS011;43451;49.060;10.616;2024-03-06T07:29:11;37.65;;;17.45;;
57627;SDS011;43451;49.060;10.616;2024-03-06T07:31:43;38.95;;;18.67;;
57627;SDS011;43451;49.060;10.616;2024-03-06T07:34:12;40.22;;;17.83;;
57627;SDS011;43451;49.060;10.616;2024-03-06T07:36:39;38.65;;;17.70;;
57627;SDS011;43451;49.060;10.616;2024-03-06T07:39:05;35.63;;;17.17;;
57627;SDS011;43451;49.060;10.616;2024-03-06T07:41:32;37.47;;;16.60;;
57627;SDS011;43451;49.060;10.616;2024-03-06T07:43:58;38.63;;;16.75;;
57627;SDS011;43451;49.060;10.616;2024-03-06T07:46:25;35.03;;;16.20;;
57627;SDS011;43451;49.060;10.616;2024-03-06T07:48:50;31.58;;;15.52;;
57627;SDS011;43451;49.060;10.616;2024-03-06T07:51:17;33.13;;;15.73;;
57627;SDS011;43451;49.060;10.616;2024-03-06T07:53:42;32.75;;;15.55;;
57627;SDS011;43451;49.060;10.616;2024-03-06T07:56:11;35.15;;;16.80;;
57627;SDS011;43451;49.060;10.616;2024-03-06T07:58:37;34.13;;;16.25;;
57627;SDS011;43451;49.060;10.616;2024-03-06T08:01:02;35.83;;;16.45;;
57627;SDS011;43451;49.060;10.616;2024-03-06T08:03:28;31.20;;;15.02;;
57627;SDS011;43451;49.060;10.616;2024-03-06T08:05:54;36.25;;;16.40;;
57627;SDS011;43451;49.060;10.616;2024-03-06T08:08:19;36.22;;;15.90;;
57627;SDS011;43451;49.060;10.616;2024-03-06T08:10:45;35.55;;;15.93;;
57627;SDS011;43451;49.060;10.616;2024-03-06T08:13:11;31.42;;;14.57;;
57627;SDS011;43451;49.060;10.616;2024-03-06T08:15:37;35.13;;;16.08;;
57627;SDS011;43451;49.060;10.616;2024-03-06T08:18:02;33.75;;;15.60;;
57627;SDS011;43451;49.060;10.616;2024-03-06T08:20:28;36.85;;;16.88;;
57627;SDS011;43451;49.060;10.616;2024-03-06T08:22:54;35.15;;;16.23;;
57627;SDS011;43451;49.060;10.616;2024-03-06T08:25:21;36.58;;;16.45;;
57627;SDS011;43451;49.060;10.616;2024-03-06T08:27:47;38.85;;;16.95;;
57627;SDS011;43451;49.060;10.616;2024-03-06T08:30:12;40.58;;;16.63;;
57627;SDS011;43451;49.060;10.616;2024-03-06T08:32:38;33.88;;;15.75;;
57627;SDS011;43451;49.060;10.616;2024-03-06T08:35:04;36.33;;;16.73;;
57627;SDS011;43451;49.060;10.616;2024-03-06T08:37:32;40.25;;;17.40;;
57627;SDS011;43451;49.060;10.616;2024-03-06T08:39:58;35.78;;;16.70;;
57627;SDS011;43451;49.060;10.616;2024-03-06T08:42:24;40.05;;;17.52;;
57627;SDS011;43451;49.060;10.616;2024-03-06T08:44:50;35.28;;;16.10;;
57627;SDS011;43451;49.060;10.616;2024-03-06T08:47:16;33.25;;;16.42;;
57627;SDS011;43451;49.060;10.616;2024-03-06T08:49:42;35.30;;;16.27;;
57627;SDS011;43451;49.060;10.616;2024-03-06T08:52:07;37.75;;;16.48;;
57627;SDS011;43451;49.060;10.616;2024-03-06T08:54:35;37.20;;;16.57;;
57627;SDS011;43451;49.060;10.616;2024-03-06T08:57:01;38.17;;;17.25;;
57627;SDS011;43451;49.060;10.616;2024-03-06T08:59:28;40.03;;;17.33;;
57627;SDS011;43451;49.060;10.616;2024-03-06T09:01:54;36.13;;;17.15;;
57627;SDS011;43451;49.060;10.616;2024-03-06T09:04:21;44.80;;;19.55;;
57627;SDS011;43451;49.060;10.616;2024-03-06T09:06:47;46.13;;;18.60;;
57627;SDS011;43451;49.060;10.616;2024-03-06T09:09:14;43.70;;;18.33;;
57627;SDS011;43451;49.060;10.616;2024-03-06T09:11:40;35.13;;;16.10;;
57627;SDS011;43451;49.060;10.616;2024-03-06T09:14:09;34.22;;;16.45;;
57627;SDS011;43451;49.060;10.616;2024-03-06T09:16:35;34.97;;;16.23;;
57627;SDS011;43451;49.060;10.616;2024-03-06T09:19:01;37.92;;;17.17;;
57627;SDS011;43451;49.060;10.616;2024-03-06T09:21:27;40.72;;;17.85;;
57627;SDS011;43451;49.060;10.616;2024-03-06T09:23:53;37.00;;;16.77;;
57627;SDS011;43451;49.060;10.616;2024-03-06T09:26:19;37.00;;;16.63;;
57627;SDS011;43451;49.060;10.616;2024-03-06T09:28:45;34.72;;;16.63;;
57627;SDS011;43451;49.060;10.616;2024-03-06T09:31:11;36.88;;;16.92;;
57627;SDS011;43451;49.060;10.616;2024-03-06T09:33:39;39.38;;;17.10;;
57627;SDS011;43451;49.060;10.616;2024-03-06T09:36:05;38.58;;;16.10;;
57627;SDS011;43451;49.060;10.616;2024-03-06T09:38:30;40.17;;;17.63;;
57627;SDS011;43451;49.060;10.616;2024-03-06T09:40:56;37.88;;;17.25;;
57627;SDS011;43451;49.060;10.616;2024-03-06T09:43:22;37.65;;;16.33;;
57627;SDS011;43451;49.060;10.616;2024-03-06T09:45:49;35.78;;;16.38;;
57627;SDS011;43451;49.060;10.616;2024-03-06T09:48:16;39.83;;;17.05;;
57627;SDS011;43451;49.060;10.616;2024-03-06T09:50:45;33.15;;;15.50;;
57627;SDS011;43451;49.060;10.616;2024-03-06T09:53:12;38.17;;;16.35;;
57627;SDS011;43451;49.060;10.616;2024-03-06T09:55:40;35.97;;;16.73;;
57627;SDS011;43451;49.060;10.616;2024-03-06T09:58:07;38.93;;;17.57;;
57627;SDS011;43451;49.060;10.616;2024-03-06T10:00:34;36.42;;;16.42;;
57627;SDS011;43451;49.060;10.616;2024-03-06T10:03:01;34.97;;;15.82;;
57627;SDS011;43451;49.060;10.616;2024-03-06T10:05:33;35.25;;;16.17;;
57627;SDS011;43451;49.060;10.616;2024-03-06T10:08:03;40.30;;;17.60;;
57627;SDS011;43451;49.060;10.616;2024-03-06T10:10:29;36.53;;;16.83;;
57627;SDS011;43451;49.060;10.616;2024-03-06T10:12:55;43.30;;;20.20;;
57627;SDS011;43451;49.060;10.616;2024-03-06T10:15:28;38.47;;;17.50;;
57627;SDS011;43451;49.060;10.616;2024-03-06T10:18:27;35.63;;;16.77;;
57627;SDS011;43451;49.060;10.616;2024-03-06T10:20:46;35.05;;;16.42;;
57627;SDS011;43451;49.060;10.616;2024-03-06T10:23:11;36.45;;;16.92;;
57627;SDS011;43451;49.060;10.616;2024-03-06T10:25:37;36.25;;;16.50;;
57627;SDS011;43451;49.060;10.616;2024-03-06T10:28:03;49.05;;;19.25;;
57627;SDS011;43451;49.060;10.616;2024-03-06T10:30:28;33.22;;;15.65;;
57627;SDS011;43451;49.060;10.616;2024-03-06T10:32:54;36.30;;;17.45;;
57627;SDS011;43451;49.060;10.616;2024-03-06T10:35:20;39.83;;;18.67;;
57627;SDS011;43451;49.060;10.616;2024-03-06T10:37:46;41.58;;;19.05;;
57627;SDS011;43451;49.060;10.616;2024-03-06T10:40:12;39.03;;;18.05;;
57627;SDS011;43451;49.060;10.616;2024-03-06T10:42:40;36.25;;;16.60;;
57627;SDS011;43451;49.060;10.616;2024-03-06T10:45:08;37.33;;;17.42;;
57627;SDS011;43451;49.060;10.616;2024-03-06T10:47:39;35.08;;;16.95;;
57627;SDS011;43451;49.060;10.616;2024-03-06T10:50:05;33.55;;;16.23;;
57627;SDS011;43451;49.060;10.616;2024-03-06T10:52:35;34.20;;;14.50;;
57627;SDS011;43451;49.060;10.616;2024-03-06T10:57:29;33.30;;;14.60;;
57627;SDS011;43451;49.060;10.616;2024-03-06T10:59:56;33.95;;;14.95;;
57627;SDS011;43451;49.060;10.616;2024-03-06T11:02:25;33.40;;;14.98;;
57627;SDS011;43451;49.060;10.616;2024-03-06T11:04:53;32.90;;;14.25;;
57627;SDS011;43451;49.060;10.616;2024-03-06T11:07:18;33.42;;;13.98;;
57627;SDS011;43451;49.060;10.616;2024-03-06T11:09:44;34.22;;;14.38;;
57627;SDS011;43451;49.060;10.616;2024-03-06T11:12:30;32.15;;;14.50;;
57627;SDS011;43451;49.060;10.616;2024-03-06T11:14:59;31.83;;;14.65;;
57627;SDS011;43451;49.060;10.616;2024-03-06T11:17:26;33.08;;;14.25;;
57627;SDS011;43451;49.060;10.616;2024-03-06T11:28:26;28.67;;;13.73;;
57627;SDS011;43451;49.060;10.616;2024-03-06T11:30:59;32.40;;;14.27;;
57627;SDS011;43451;49.060;10.616;2024-03-06T11:33:38;32.38;;;14.18;;
57627;SDS011;43451;49.060;10.616;2024-03-06T11:36:15;30.60;;;13.93;;
57627;SDS011;43451;49.060;10.616;2024-03-06T11:38:53;29.50;;;13.35;;
57627;SDS011;43451;49.060;10.616;2024-03-06T11:41:23;34.20;;;14.00;;
57627;SDS011;43451;49.060;10.616;2024-03-06T11:43:50;30.17;;;14.02;;
57627;SDS011;43451;49.060;10.616;2024-03-06T11:46:23;30.60;;;13.88;;
57627;SDS011;43451;49.060;10.616;2024-03-06T11:49:04;31.65;;;13.80;;
57627;SDS011;43451;49.060;10.616;2024-03-06T11:51:40;30.98;;;14.55;;
57627;SDS011;43451;49.060;10.616;2024-03-06T11:54:06;32.17;;;14.70;;
57627;SDS011;43451;49.060;10.616;2024-03-06T11:56:32;32.00;;;13.93;;
57627;SDS011;43451;49.060;10.616;2024-03-06T11:58:58;30.30;;;13.65;;
57627;SDS011;43451;49.060;10.616;2024-03-06T12:01:23;30.88;;;13.65;;
57627;SDS011;43451;49.060;10.616;2024-03-06T12:03:49;33.50;;;14.27;;
57627;SDS011;43451;49.060;10.616;2024-03-06T12:06:15;30.77;;;13.32;;
57627;SDS011;43451;49.060;10.616;2024-03-06T12:08:42;29.40;;;13.68;;
57627;SDS011;43451;49.060;10.616;2024-03-06T12:11:07;30.75;;;12.73;;
57627;SDS011;43451;49.060;10.616;2024-03-06T12:13:33;31.88;;;13.98;;
57627;SDS011;43451;49.060;10.616;2024-03-06T12:16:03;32.78;;;13.82;;
57627;SDS011;43451;49.060;10.616;2024-03-06T12:18:29;30.20;;;14.23;;
57627;SDS011;43451;49.060;10.616;2024-03-06T12:20:55;32.08;;;13.65;;
57627;SDS011;43451;49.060;10.616;2024-03-06T12:23:21;28.95;;;12.98;;
57627;SDS011;43451;49.060;10.616;2024-03-06T12:25:48;32.60;;;13.70;;
57627;SDS011;43451;49.060;10.616;2024-03-06T12:28:13;28.27;;;13.05;;
57627;SDS011;43451;49.060;10.616;2024-03-06T12:30:42;31.98;;;14.07;;
57627;SDS011;43451;49.060;10.616;2024-03-06T12:33:09;28.00;;;13.38;;
57627;SDS011;43451;49.060;10.616;2024-03-06T12:35:39;29.00;;;13.27;;
57627;SDS011;43451;49.060;10.616;2024-03-06T12:38:15;30.40;;;12.80;;
57627;SDS011;43451;49.060;10.616;2024-03-06T12:40:41;30.70;;;13.45;;
57627;SDS011;43451;49.060;10.616;2024-03-06T12:43:07;31.13;;;14.10;;
57627;SDS011;43451;49.060;10.616;2024-03-06T12:45:33;30.90;;;14.75;;
57627;SDS011;43451;49.060;10.616;2024-03-06T12:47:59;33.60;;;15.15;;
57627;SDS011;43451;49.060;10.616;2024-03-06T12:50:24;37.17;;;15.98;;
57627;SDS011;43451;49.060;10.616;2024-03-06T12:52:50;35.95;;;16.55;;
57627;SDS011;43451;49.060;10.616;2024-03-06T12:55:17;31.80;;;15.10;;
57627;SDS011;43451;49.060;10.616;2024-03-06T12:57:42;34.33;;;14.55;;
57627;SDS011;43451;49.060;10.616;2024-03-06T13:00:08;36.53;;;17.60;;
57627;SDS011;43451;49.060;10.616;2024-03-06T13:02:41;37.28;;;17.58;;
57627;SDS011;43451;49.060;10.616;2024-03-06T13:05:09;29.58;;;14.60;;
57627;SDS011;43451;49.060;10.616;2024-03-06T13:07:34;30.13;;;13.05;;
57627;SDS011;43451;49.060;10.616;2024-03-06T13:10:01;29.58;;;13.48;;
57627;SDS011;43451;49.060;10.616;2024-03-06T13:12:29;31.73;;;14.43;;
57627;SDS011;43451;49.060;10.616;2024-03-06T13:14:54;30.77;;;14.60;;
57627;SDS011;43451;49.060;10.616;2024-03-06T13:17:21;26.63;;;13.48;;
57627;SDS011;43451;49.060;10.616;2024-03-06T13:19:46;31.58;;;14.38;;
57627;SDS011;43451;49.060;10.616;2024-03-06T13:22:11;30.80;;;14.93;;
57627;SDS011;43451;49.060;10.616;2024-03-06T13:24:37;29.63;;;14.52;;
57627;SDS011;43451;49.060;10.616;2024-03-06T13:27:03;28.50;;;13.63;;
57627;SDS011;43451;49.060;10.616;2024-03-06T13:29:29;30.80;;;15.30;;
57627;SDS011;43451;49.060;10.616;2024-03-06T13:31:54;29.80;;;13.07;;
57627;SDS011;43451;49.060;10.616;2024-03-06T13:34:20;28.75;;;13.07;;
57627;SDS011;43451;49.060;10.616;2024-03-06T13:36:45;29.80;;;12.70;;
57627;SDS011;43451;49.060;10.616;2024-03-06T13:39:11;27.98;;;13.20;;
57627;SDS011;43451;49.060;10.616;2024-03-06T13:41:37;26.00;;;12.48;;
57627;SDS011;43451;49.060;10.616;2024-03-06T13:44:02;26.85;;;12.85;;
57627;SDS011;43451;49.060;10.616;2024-03-06T13:46:27;24.83;;;12.48;;
57627;SDS011;43451;49.060;10.616;2024-03-06T13:48:53;25.33;;;12.15;;
57627;SDS011;43451;49.060;10.616;2024-03-06T13:51:18;25.13;;;12.75;;
57627;SDS011;43451;49.060;10.616;2024-03-06T13:53:44;35.88;;;16.90;;
57627;SDS011;43451;49.060;10.616;2024-03-06T13:56:10;26.95;;;12.85;;
57627;SDS011;43451;49.060;10.616;2024-03-06T13:58:35;26.33;;;12.98;;
57627;SDS011;43451;49.060;10.616;2024-03-06T14:01:01;27.73;;;12.65;;
57627;SDS011;43451;49.060;10.616;2024-03-06T14:03:27;24.90;;;12.55;;
57627;SDS011;43451;49.060;10.616;2024-03-06T14:05:52;27.38;;;12.82;;
57627;SDS011;43451;49.060;10.616;2024-03-06T14:08:18;31.30;;;16.88;;
57627;SDS011;43451;49.060;10.616;2024-03-06T14:10:43;27.13;;;13.38;;
57627;SDS011;43451;49.060;10.616;2024-03-06T14:13:10;22.40;;;11.30;;
57627;SDS011;43451;49.060;10.616;2024-03-06T14:15:36;26.00;;;12.32;;
57627;SDS011;43451;49.060;10.616;2024-03-06T14:18:01;25.40;;;12.35;;